createdAt,value
2022-09-28T00:00:36.412Z,2.30
2022-09-28T00:02:04.095Z,2.80
2022-09-28T00:03:15.931Z,2.70
2022-09-28T00:04:34.062Z,2.40
2022-09-28T00:05:41.820Z,3.00
2022-09-28T00:06:52.397Z,2.60
2022-09-28T00:08:00.688Z,2.60
2022-09-28T00:09:09.719Z,2.80
2022-09-28T00:10:21.052Z,2.80
2022-09-28T00:11:29.810Z,2.80
2022-09-28T00:12:37.154Z,2.80
2022-09-28T00:13:45.269Z,3.40
2022-09-28T00:14:55.633Z,3.10
2022-09-28T00:16:11.460Z,2.90
2022-09-28T00:17:24.596Z,3.40
2022-09-28T00:18:32.380Z,3.20
2022-09-28T00:19:42.512Z,2.90
2022-09-28T00:20:50.605Z,3.10
2022-09-28T00:22:00.448Z,3.00
2022-09-28T00:23:12.213Z,3.10
2022-09-28T00:24:27.516Z,3.10
2022-09-28T00:25:39.397Z,3.10
2022-09-28T00:26:50.768Z,3.10
2022-09-28T00:28:00.062Z,3.20
2022-09-28T00:29:08.282Z,3.40
2022-09-28T00:30:18.185Z,3.60
2022-09-28T00:31:28.527Z,3.00
2022-09-28T00:32:37.121Z,3.70
2022-09-28T00:33:46.234Z,3.40
2022-09-28T00:34:54.213Z,3.20
2022-09-28T00:36:02.085Z,3.50
2022-09-28T00:37:12.084Z,3.20
2022-09-28T00:38:21.842Z,3.20
2022-09-28T00:39:37.461Z,3.50
2022-09-28T00:40:44.870Z,3.20
2022-09-28T00:41:53.627Z,3.30
2022-09-28T00:43:01.687Z,3.50
2022-09-28T00:44:35.450Z,3.40
2022-09-28T00:45:43.673Z,3.70
2022-09-28T00:47:16.624Z,4.10
2022-09-28T00:48:24.480Z,3.80
2022-09-28T00:49:35.312Z,3.90
2022-09-28T00:50:42.628Z,3.90
2022-09-28T00:51:49.967Z,3.90
2022-09-28T00:53:12.773Z,4.00
2022-09-28T00:54:20.700Z,4.10
2022-09-28T00:55:51.212Z,4.00
2022-09-28T00:56:58.739Z,3.80
2022-09-28T00:58:07.392Z,3.70
2022-09-28T00:59:16.914Z,4.10
2022-09-28T01:00:25.439Z,3.90
2022-09-28T01:01:34.729Z,4.50
2022-09-28T01:02:43.178Z,3.80
2022-09-28T01:03:51.962Z,4.70
2022-09-28T01:05:00.280Z,4.50
2022-09-28T01:06:08.114Z,4.30
2022-09-28T01:07:16.088Z,4.60
2022-09-28T01:08:24.696Z,4.20
2022-09-28T01:09:33.658Z,4.30
2022-09-28T01:10:42.153Z,3.90
2022-09-28T01:11:54.049Z,4.00
2022-09-28T01:13:02.882Z,4.20
2022-09-28T01:14:14.040Z,4.00
2022-09-28T01:15:23.072Z,4.30
2022-09-28T01:16:55.289Z,4.80
2022-09-28T01:18:26.515Z,4.50
2022-09-28T01:19:37.221Z,4.20
2022-09-28T01:21:06.579Z,4.20
2022-09-28T01:22:47.888Z,4.30
2022-09-28T01:24:11.275Z,4.40
2022-09-28T01:25:47.640Z,4.00
2022-09-28T01:27:38.007Z,4.20
2022-09-28T01:28:49.625Z,4.40
2022-09-28T01:30:10.740Z,4.00
2022-09-28T01:31:18.675Z,4.30
2022-09-28T01:32:30.859Z,3.80
2022-09-28T01:34:02.641Z,4.20
2022-09-28T01:35:23.146Z,4.00
2022-09-28T01:36:47.645Z,4.00
2022-09-28T01:38:05.631Z,4.30
2022-09-28T01:39:19.827Z,4.30
2022-09-28T01:40:28.216Z,4.00
2022-09-28T01:41:39.872Z,4.40
2022-09-28T01:42:49.100Z,4.30
2022-09-28T01:44:00.805Z,4.50
2022-09-28T01:45:12.202Z,3.90
2022-09-28T01:46:22.398Z,4.00
2022-09-28T01:47:30.002Z,4.30
2022-09-28T01:49:05.749Z,4.40
2022-09-28T01:50:19.418Z,3.60
2022-09-28T01:51:36.942Z,3.80
2022-09-28T01:53:07.136Z,4.20
2022-09-28T01:54:22.149Z,4.50
2022-09-28T01:55:36.537Z,3.90
2022-09-28T01:57:15.831Z,3.70
2022-09-28T01:58:35.103Z,3.80
2022-09-28T01:59:45.142Z,4.10
2022-09-28T02:00:57.564Z,4.00
2022-09-28T02:02:14.363Z,4.30
2022-09-28T02:03:25.604Z,4.20
2022-09-28T02:04:45.153Z,4.20
2022-09-28T02:06:05.486Z,4.40
2022-09-28T02:07:36.984Z,4.80
2022-09-28T02:08:50.466Z,4.50
2022-09-28T02:10:01.979Z,5.00
2022-09-28T02:11:21.882Z,3.90
2022-09-28T02:12:37.655Z,4.30
2022-09-28T02:14:05.050Z,4.30
2022-09-28T02:15:36.703Z,4.40
2022-09-28T02:16:51.619Z,4.40
2022-09-28T02:18:04.474Z,5.00
2022-09-28T02:19:19.327Z,4.90
2022-09-28T02:20:27.244Z,4.70
2022-09-28T02:21:46.327Z,4.60
2022-09-28T02:22:55.836Z,5.10
2022-09-28T02:24:05.763Z,4.40
2022-09-28T02:25:13.818Z,4.90
2022-09-28T02:26:21.652Z,3.90
2022-09-28T02:27:53.134Z,4.70
2022-09-28T02:29:03.277Z,4.10
2022-09-28T02:30:11.820Z,4.90
2022-09-28T02:31:19.652Z,4.80
2022-09-28T02:32:27.869Z,4.60
2022-09-28T02:33:39.623Z,4.50
2022-09-28T02:34:47.264Z,4.40
2022-09-28T02:35:54.980Z,4.20
2022-09-28T02:37:03.657Z,4.10
2022-09-28T02:38:16.115Z,4.30
2022-09-28T02:39:24.728Z,4.50
2022-09-28T02:40:34.538Z,4.20
2022-09-28T02:41:54.801Z,3.80
2022-09-28T02:43:08.769Z,4.20
2022-09-28T02:44:45.645Z,3.70
2022-09-28T02:46:14.495Z,4.10
2022-09-28T02:48:10.736Z,4.40
2022-09-28T02:49:36.698Z,4.40
2022-09-28T02:51:01.459Z,4.50
2022-09-28T02:52:24.473Z,4.60
2022-09-28T02:54:08.402Z,5.10
2022-09-28T02:55:41.882Z,4.70
2022-09-28T02:57:07.612Z,4.40
2022-09-28T02:58:27.887Z,4.10
2022-09-28T02:59:42.455Z,4.10
2022-09-28T03:01:07.498Z,4.40
2022-09-28T03:02:24.084Z,4.30
2022-09-28T03:03:57.631Z,4.40
2022-09-28T03:05:17.283Z,4.20
2022-09-28T03:06:47.195Z,4.30
2022-09-28T03:08:03.838Z,4.40
2022-09-28T03:09:33.392Z,4.60
2022-09-28T03:10:43.037Z,4.50
2022-09-28T03:11:55.602Z,4.70
2022-09-28T03:13:03.054Z,4.50
2022-09-28T03:14:11.193Z,4.70
2022-09-28T03:15:26.598Z,4.70
2022-09-28T03:16:34.383Z,4.20
2022-09-28T03:17:41.838Z,4.10
2022-09-28T03:18:49.190Z,4.60
2022-09-28T03:19:56.571Z,4.40
2022-09-28T03:21:06.402Z,4.60
2022-09-28T03:22:14.116Z,4.70
2022-09-28T03:23:25.461Z,4.50
2022-09-28T03:24:33.712Z,4.90
2022-09-28T03:25:42.121Z,4.80
2022-09-28T03:26:49.351Z,5.40
2022-09-28T03:27:56.961Z,4.60
2022-09-28T03:29:05.182Z,4.90
2022-09-28T03:30:13.417Z,4.90
2022-09-28T03:31:22.346Z,4.90
2022-09-28T03:32:29.571Z,4.80
2022-09-28T03:33:37.341Z,4.90
2022-09-28T03:34:45.407Z,4.60
2022-09-28T03:35:53.273Z,4.60
2022-09-28T03:37:01.394Z,4.20
2022-09-28T03:38:09.300Z,4.90
2022-09-28T03:39:18.173Z,4.70
2022-09-28T03:40:26.072Z,5.10
2022-09-28T03:41:33.588Z,4.70
2022-09-28T03:42:41.670Z,4.70
2022-09-28T03:43:49.339Z,4.60
2022-09-28T03:44:57.353Z,4.90
2022-09-28T03:46:05.659Z,4.50
2022-09-28T03:47:19.789Z,4.70
2022-09-28T03:48:32.405Z,3.90
2022-09-28T03:49:42.048Z,4.50
2022-09-28T03:50:51.188Z,4.40
2022-09-28T03:51:59.360Z,4.90
2022-09-28T03:53:10.945Z,4.60
2022-09-28T03:54:18.568Z,4.50
2022-09-28T03:55:26.205Z,4.50
2022-09-28T03:56:53.711Z,4.90
2022-09-28T03:58:01.313Z,4.90
2022-09-28T03:59:32.607Z,4.60
2022-09-28T04:00:40.694Z,5.00
2022-09-28T04:01:58.398Z,4.80
2022-09-28T04:03:10.252Z,4.60
2022-09-28T04:04:18.038Z,4.60
2022-09-28T04:05:25.952Z,4.30
2022-09-28T04:06:33.238Z,4.50
2022-09-28T04:07:40.691Z,4.60
2022-09-28T04:08:48.381Z,4.80
2022-09-28T04:09:56.555Z,4.50
2022-09-28T04:11:10.558Z,4.10
2022-09-28T04:12:21.749Z,3.80
2022-09-28T04:13:29.689Z,4.40
2022-09-28T04:14:38.234Z,4.50
2022-09-28T04:15:45.748Z,4.50
2022-09-28T04:16:56.113Z,4.40
2022-09-28T04:18:06.628Z,4.30
2022-09-28T04:19:28.350Z,4.90
2022-09-28T04:21:15.539Z,4.70
2022-09-28T04:22:26.155Z,4.50
2022-09-28T04:23:33.930Z,3.90
2022-09-28T04:24:43.405Z,4.20
2022-09-28T04:25:54.997Z,4.30
2022-09-28T04:27:22.897Z,4.10
2022-09-28T04:28:49.006Z,4.40
2022-09-28T04:29:59.738Z,4.00
2022-09-28T04:31:12.018Z,4.10
2022-09-28T04:32:20.038Z,4.50
2022-09-28T04:33:27.941Z,3.60
2022-09-28T04:34:38.767Z,3.80
2022-09-28T04:35:50.022Z,3.40
2022-09-28T04:36:57.511Z,3.50
2022-09-28T04:38:05.256Z,3.70
2022-09-28T04:39:14.105Z,4.30
2022-09-28T04:40:24.662Z,3.90
2022-09-28T04:41:32.958Z,3.60
2022-09-28T04:42:43.693Z,3.80
2022-09-28T04:43:50.838Z,3.80
2022-09-28T04:45:00.176Z,3.50
2022-09-28T04:46:07.799Z,3.70
2022-09-28T04:47:23.244Z,3.40
2022-09-28T04:48:51.306Z,3.20
2022-09-28T04:50:18.665Z,3.40
2022-09-28T04:51:46.437Z,3.60
2022-09-28T04:52:56.027Z,3.70
2022-09-28T04:54:04.813Z,3.50
2022-09-28T04:55:17.610Z,3.40
2022-09-28T04:56:26.207Z,3.20
2022-09-28T04:57:38.055Z,3.20
2022-09-28T04:58:51.735Z,3.30
2022-09-28T05:00:02.702Z,3.40
2022-09-28T05:01:19.225Z,3.10
2022-09-28T05:02:37.036Z,3.70
2022-09-28T05:04:26.131Z,3.20
2022-09-28T05:05:53.906Z,3.10
2022-09-28T05:07:25.790Z,3.90
2022-09-28T05:08:35.477Z,3.60
2022-09-28T05:09:43.832Z,3.80
2022-09-28T05:10:56.408Z,3.70
2022-09-28T05:12:05.496Z,4.20
2022-09-28T05:13:16.027Z,3.50
2022-09-28T05:14:26.264Z,4.00
2022-09-28T05:15:36.076Z,3.70
2022-09-28T05:16:44.432Z,3.70
2022-09-28T05:18:17.715Z,3.80
2022-09-28T05:19:32.032Z,4.30
2022-09-28T05:20:43.775Z,3.80
2022-09-28T05:21:52.125Z,3.80
2022-09-28T05:23:04.535Z,4.10
2022-09-28T05:24:14.429Z,3.60
2022-09-28T05:25:26.893Z,4.20
2022-09-28T05:26:47.925Z,3.50
2022-09-28T05:28:00.439Z,3.90
2022-09-28T05:29:38.370Z,3.80
2022-09-28T05:31:06.152Z,3.40
2022-09-28T05:32:45.574Z,3.90
2022-09-28T05:34:10.287Z,4.30
2022-09-28T05:35:19.851Z,3.60
2022-09-28T05:36:29.918Z,3.80
2022-09-28T05:37:39.437Z,3.50
2022-09-28T05:38:47.717Z,4.20
2022-09-28T05:39:57.146Z,4.00
2022-09-28T05:41:07.026Z,4.50
2022-09-28T05:42:16.757Z,3.80
2022-09-28T05:43:26.251Z,4.10
2022-09-28T05:44:34.087Z,3.80
2022-09-28T05:45:43.514Z,4.00
2022-09-28T05:46:52.203Z,3.70
2022-09-28T05:48:01.830Z,3.80
2022-09-28T05:49:10.621Z,3.90
2022-09-28T05:50:20.776Z,3.60
2022-09-28T05:51:30.215Z,3.90
2022-09-28T05:52:38.534Z,3.70
2022-09-28T05:53:47.701Z,3.60
2022-09-28T05:54:57.817Z,4.30
2022-09-28T05:56:08.035Z,4.00
2022-09-28T05:57:20.562Z,4.20
2022-09-28T05:58:30.330Z,4.30
2022-09-28T05:59:39.481Z,4.70
2022-09-28T06:00:47.532Z,4.80
2022-09-28T06:01:56.439Z,4.60
2022-09-28T06:03:10.086Z,4.60
2022-09-28T06:04:18.705Z,4.60
2022-09-28T06:05:31.638Z,4.80
2022-09-28T06:06:40.540Z,4.80
2022-09-28T06:07:48.916Z,5.10
2022-09-28T06:08:57.793Z,4.90
2022-09-28T06:10:30.844Z,5.20
2022-09-28T06:11:41.883Z,5.50
2022-09-28T06:12:59.893Z,5.00
2022-09-28T06:14:09.464Z,5.00
2022-09-28T06:15:19.776Z,5.30
2022-09-28T06:16:28.250Z,5.00
2022-09-28T06:17:36.978Z,5.00
2022-09-28T06:19:15.406Z,4.70
2022-09-28T06:20:44.777Z,5.00
2022-09-28T06:21:59.271Z,4.90
2022-09-28T06:23:09.382Z,4.90
2022-09-28T06:24:18.630Z,4.80
2022-09-28T06:25:29.580Z,4.70
2022-09-28T06:26:38.601Z,5.60
2022-09-28T06:27:56.125Z,4.90
2022-09-28T06:29:05.277Z,5.10
2022-09-28T06:30:14.423Z,5.00
2022-09-28T06:31:26.073Z,5.20
2022-09-28T06:32:34.983Z,4.50
2022-09-28T06:33:44.487Z,4.90
2022-09-28T06:34:56.283Z,5.10
2022-09-28T06:36:08.387Z,4.30
2022-09-28T06:37:18.011Z,4.60
2022-09-28T06:38:29.447Z,5.30
2022-09-28T06:39:37.477Z,5.00
2022-09-28T06:40:45.901Z,4.50
2022-09-28T06:41:54.435Z,5.00
2022-09-28T06:43:14.391Z,4.90
2022-09-28T06:45:02.413Z,4.90
2022-09-28T06:46:27.381Z,4.10
2022-09-28T06:48:04.045Z,4.80
2022-09-28T06:49:21.838Z,4.80
2022-09-28T06:50:49.916Z,4.80
2022-09-28T06:52:09.210Z,4.60
2022-09-28T06:53:37.549Z,4.10
2022-09-28T06:55:14.026Z,4.50
2022-09-28T06:56:27.302Z,4.20
2022-09-28T06:57:39.638Z,4.50
2022-09-28T06:58:47.730Z,4.50
2022-09-28T06:59:55.891Z,4.50
2022-09-28T07:01:04.273Z,4.20
2022-09-28T07:02:25.728Z,4.60
2022-09-28T07:04:04.203Z,3.90
2022-09-28T07:05:31.991Z,4.80
2022-09-28T07:07:03.658Z,4.80
2022-09-28T07:08:36.315Z,4.80
2022-09-28T07:10:03.294Z,4.80
2022-09-28T07:11:46.780Z,4.40
2022-09-28T07:13:49.445Z,4.10
2022-09-28T07:15:01.047Z,4.70
2022-09-28T07:16:14.900Z,4.10
2022-09-28T07:17:24.760Z,4.00
2022-09-28T07:18:33.636Z,4.50
2022-09-28T07:19:41.959Z,4.50
2022-09-28T07:20:54.596Z,4.50
2022-09-28T07:22:05.560Z,5.10
2022-09-28T07:23:19.303Z,5.80
2022-09-28T07:25:01.359Z,4.80
2022-09-28T07:26:28.887Z,5.40
2022-09-28T07:27:43.670Z,5.40
2022-09-28T07:29:25.704Z,5.10
2022-09-28T07:30:52.610Z,4.80
2022-09-28T07:32:25.511Z,4.90
2022-09-28T07:34:04.756Z,5.30
2022-09-28T07:35:36.359Z,5.30
2022-09-28T07:36:45.107Z,4.70
2022-09-28T07:38:00.855Z,5.10
2022-09-28T07:39:09.665Z,4.50
2022-09-28T07:40:43.200Z,4.70
2022-09-28T07:41:59.732Z,5.00
2022-09-28T07:43:15.088Z,5.30
2022-09-28T07:44:25.071Z,5.40
2022-09-28T07:45:40.076Z,5.10
2022-09-28T07:46:48.157Z,5.10
2022-09-28T07:48:06.523Z,5.40
2022-09-28T07:49:34.162Z,5.70
2022-09-28T07:51:20.927Z,5.10
2022-09-28T07:52:47.713Z,5.30
2022-09-28T07:54:08.410Z,5.10
2022-09-28T07:55:37.078Z,5.10
2022-09-28T07:56:50.310Z,5.40
2022-09-28T07:58:18.083Z,4.70
2022-09-28T07:59:56.425Z,5.20
2022-09-28T08:01:26.866Z,4.70
2022-09-28T08:02:36.855Z,4.80
2022-09-28T08:03:47.106Z,5.40
2022-09-28T08:04:55.527Z,5.20
2022-09-28T08:06:06.658Z,4.90
2022-09-28T08:07:23.708Z,5.30
2022-09-28T08:08:45.712Z,5.20
2022-09-28T08:09:56.175Z,5.50
2022-09-28T08:11:12.904Z,5.20
2022-09-28T08:12:43.782Z,5.70
2022-09-28T08:14:10.716Z,5.60
2022-09-28T08:15:38.969Z,5.50
2022-09-28T08:16:57.982Z,5.30
2022-09-28T08:18:20.825Z,5.40
2022-09-28T08:19:49.682Z,6.00
2022-09-28T08:21:16.192Z,5.70
2022-09-28T08:22:26.043Z,5.60
2022-09-28T08:23:37.053Z,5.30
2022-09-28T08:24:46.098Z,5.60
2022-09-28T08:25:55.839Z,6.30
2022-09-28T08:27:04.782Z,5.40
2022-09-28T08:28:14.927Z,5.90
2022-09-28T08:29:28.867Z,5.80
2022-09-28T08:30:58.107Z,5.60
2022-09-28T08:32:15.572Z,5.70
2022-09-28T08:33:55.482Z,5.60
2022-09-28T08:35:22.555Z,6.30
2022-09-28T08:36:53.770Z,5.50
2022-09-28T08:38:35.382Z,5.90
2022-09-28T08:40:27.522Z,5.90
2022-09-28T08:42:03.820Z,4.80
2022-09-28T08:43:40.440Z,5.40
2022-09-28T08:45:22.788Z,5.20
2022-09-28T08:46:51.309Z,5.30
2022-09-28T08:49:06.619Z,5.20
2022-09-28T08:50:55.758Z,5.40
2022-09-28T08:52:25.183Z,5.30
2022-09-28T08:54:48.360Z,5.40
2022-09-28T08:56:10.275Z,5.00
2022-09-28T08:57:34.034Z,5.70
2022-09-28T08:58:44.497Z,5.60
2022-09-28T09:00:02.814Z,5.50
2022-09-28T09:01:18.279Z,5.50
2022-09-28T09:02:35.145Z,5.50
2022-09-28T09:03:57.263Z,5.50
2022-09-28T09:05:22.152Z,5.10
2022-09-28T09:06:59.706Z,5.00
2022-09-28T09:08:41.400Z,5.20
2022-09-28T09:10:03.741Z,4.90
2022-09-28T09:11:33.352Z,5.20
2022-09-28T09:13:02.318Z,5.20
2022-09-28T09:14:36.222Z,5.50
2022-09-28T09:15:59.588Z,5.10
2022-09-28T09:17:54.289Z,4.90
2022-09-28T09:19:38.596Z,5.00
2022-09-28T09:21:24.366Z,4.90
2022-09-28T09:22:37.604Z,5.40
2022-09-28T09:23:58.213Z,5.00
2022-09-28T09:25:28.828Z,5.10
2022-09-28T09:26:41.696Z,4.90
2022-09-28T09:28:03.952Z,5.40
2022-09-28T09:29:46.506Z,5.20
2022-09-28T09:31:13.139Z,5.00
2022-09-28T09:33:06.734Z,4.70
2022-09-28T09:34:34.117Z,5.60
2022-09-28T09:36:41.327Z,6.00
2022-09-28T09:38:28.622Z,5.50
2022-09-28T09:40:28.444Z,5.50
2022-09-28T09:42:12.143Z,5.70
2022-09-28T09:44:31.607Z,5.60
2022-09-28T09:46:42.441Z,5.60
2022-09-28T09:48:06.578Z,5.80
2022-09-28T09:49:32.107Z,5.40
2022-09-28T09:50:58.819Z,5.00
2022-09-28T09:52:28.721Z,5.60
2022-09-28T09:53:43.639Z,5.50
2022-09-28T09:54:58.665Z,5.40
2022-09-28T09:56:20.957Z,5.50
2022-09-28T09:57:55.057Z,5.60
2022-09-28T09:59:29.756Z,5.90
2022-09-28T10:00:47.026Z,6.20
2022-09-28T10:02:29.966Z,5.90
2022-09-28T10:04:00.574Z,5.60
2022-09-28T10:05:15.681Z,5.10
2022-09-28T10:06:29.736Z,5.40
2022-09-28T10:07:43.591Z,5.50
2022-09-28T10:09:14.937Z,5.70
2022-09-28T10:10:26.765Z,5.70
2022-09-28T10:11:51.970Z,5.60
2022-09-28T10:13:01.227Z,5.90
2022-09-28T10:14:10.772Z,5.80
2022-09-28T10:15:32.868Z,5.80
2022-09-28T10:16:51.210Z,5.80
2022-09-28T10:18:19.063Z,6.00
2022-09-28T10:19:45.729Z,5.90
2022-09-28T10:21:25.294Z,5.90
2022-09-28T10:22:40.048Z,6.00
2022-09-28T10:23:57.243Z,6.00
2022-09-28T10:25:12.296Z,5.90
2022-09-28T10:26:36.436Z,6.00
2022-09-28T10:27:47.991Z,5.90
2022-09-28T10:29:20.230Z,6.00
2022-09-28T10:30:30.359Z,5.90
2022-09-28T10:31:43.570Z,6.10
2022-09-28T10:33:03.297Z,6.10
2022-09-28T10:34:17.168Z,5.90
2022-09-28T10:35:29.957Z,6.00
2022-09-28T10:37:00.369Z,5.80
2022-09-28T10:38:19.427Z,6.00
2022-09-28T10:39:55.585Z,6.00
2022-09-28T10:41:12.251Z,6.50
2022-09-28T10:42:34.417Z,5.60
2022-09-28T10:43:57.420Z,6.20
2022-09-28T10:45:11.602Z,6.50
2022-09-28T10:46:26.752Z,5.90
2022-09-28T10:47:36.148Z,6.00
2022-09-28T10:48:53.859Z,5.80
2022-09-28T10:50:05.883Z,6.20
2022-09-28T10:51:14.648Z,5.70
2022-09-28T10:52:32.648Z,6.70
2022-09-28T10:53:40.974Z,5.50
2022-09-28T10:55:35.149Z,5.80
2022-09-28T10:56:43.184Z,6.00
2022-09-28T10:57:55.412Z,6.10
2022-09-28T10:59:04.285Z,6.20
2022-09-28T11:00:39.390Z,6.10
2022-09-28T11:02:17.060Z,6.10
2022-09-28T11:03:30.086Z,6.30
2022-09-28T11:04:43.264Z,6.00
2022-09-28T11:06:10.362Z,5.90
2022-09-28T11:07:26.878Z,6.30
2022-09-28T11:08:44.756Z,5.90
2022-09-28T11:09:59.194Z,6.40
2022-09-28T11:11:18.316Z,5.50
2022-09-28T11:12:40.990Z,6.20
2022-09-28T11:13:50.984Z,5.90
2022-09-28T11:15:05.514Z,6.60
2022-09-28T11:16:27.567Z,6.10
2022-09-28T11:17:42.130Z,6.30
2022-09-28T11:18:50.749Z,5.50
2022-09-28T11:20:04.407Z,5.60
2022-09-28T11:21:21.274Z,6.20
2022-09-28T11:22:37.870Z,5.60
2022-09-28T11:24:11.903Z,5.50
2022-09-28T11:25:25.751Z,5.90
2022-09-28T11:26:44.196Z,6.10
2022-09-28T11:28:08.088Z,6.10
2022-09-28T11:29:29.045Z,7.10
2022-09-28T11:31:14.180Z,7.00
2022-09-28T11:32:48.993Z,5.90
2022-09-28T11:34:57.580Z,6.50
2022-09-28T11:36:14.135Z,6.40
2022-09-28T11:37:36.037Z,5.80
2022-09-28T11:39:19.998Z,6.20
2022-09-28T11:40:46.159Z,6.40
2022-09-28T11:42:14.131Z,6.30
2022-09-28T11:43:48.406Z,6.30
2022-09-28T11:45:27.816Z,6.30
2022-09-28T11:47:12.921Z,6.10
2022-09-28T11:48:25.033Z,6.40
2022-09-28T11:49:41.759Z,6.50
2022-09-28T11:51:01.023Z,5.70
2022-09-28T11:52:49.437Z,5.50
2022-09-28T11:53:59.399Z,5.50
2022-09-28T11:55:34.598Z,6.20
2022-09-28T11:56:52.393Z,5.90
2022-09-28T11:58:08.919Z,7.10
2022-09-28T11:59:41.308Z,5.90
2022-09-28T12:00:54.739Z,6.70
2022-09-28T12:02:30.443Z,6.20
2022-09-28T12:03:50.415Z,6.40
2022-09-28T12:05:20.863Z,6.50
2022-09-28T12:06:37.097Z,6.60
2022-09-28T12:07:50.476Z,6.30
2022-09-28T12:09:25.628Z,6.70
2022-09-28T12:11:11.521Z,6.40
2022-09-28T12:13:04.644Z,6.30
2022-09-28T12:14:25.843Z,6.10
2022-09-28T12:16:27.235Z,6.40
2022-09-28T12:17:55.523Z,6.20
2022-09-28T12:19:11.129Z,6.10
2022-09-28T12:20:24.264Z,7.60
2022-09-28T12:21:40.623Z,6.50
2022-09-28T12:23:10.629Z,6.40
2022-09-28T12:24:40.417Z,6.10
2022-09-28T12:26:11.993Z,6.60
2022-09-28T12:27:30.807Z,6.00
2022-09-28T12:28:50.008Z,7.10
2022-09-28T12:30:14.177Z,6.10
2022-09-28T12:31:24.331Z,6.80
2022-09-28T12:32:43.871Z,7.00
2022-09-28T12:33:52.890Z,7.10
2022-09-28T12:35:02.135Z,6.70
2022-09-28T12:36:44.589Z,6.90
2022-09-28T12:38:10.855Z,6.20
2022-09-28T12:39:40.815Z,6.00
2022-09-28T12:40:59.926Z,5.60
2022-09-28T12:42:49.421Z,5.70
2022-09-28T12:44:15.071Z,6.50
2022-09-28T12:46:12.001Z,5.90
2022-09-28T12:47:47.419Z,5.60
2022-09-28T12:51:04.939Z,6.10
2022-09-28T12:52:47.047Z,6.20
2022-09-28T12:54:04.719Z,6.00
2022-09-28T12:55:18.831Z,6.40
2022-09-28T12:57:17.905Z,6.20
2022-09-28T12:58:38.754Z,6.40
2022-09-28T13:00:06.735Z,5.80
2022-09-28T13:01:25.156Z,6.30
2022-09-28T13:03:13.595Z,6.20
2022-09-28T13:04:39.303Z,5.20
2022-09-28T13:06:08.965Z,6.10
2022-09-28T13:07:26.489Z,6.00
2022-09-28T13:08:59.141Z,6.30
2022-09-28T13:10:34.682Z,6.70
2022-09-28T13:12:05.681Z,6.30
2022-09-28T13:13:49.477Z,6.50
2022-09-28T13:15:11.142Z,6.60
2022-09-28T13:16:32.351Z,6.60
2022-09-28T13:17:50.612Z,6.60
2022-09-28T13:19:18.267Z,6.30
2022-09-28T13:20:42.453Z,6.20
2022-09-28T13:21:57.326Z,6.40
2022-09-28T13:23:12.678Z,6.50
2022-09-28T13:24:32.548Z,7.00
2022-09-28T13:25:44.224Z,6.80
2022-09-28T13:26:52.381Z,6.80
2022-09-28T13:28:04.092Z,6.70
2022-09-28T13:29:20.456Z,7.80
2022-09-28T13:30:29.797Z,7.70
2022-09-28T13:31:46.836Z,7.80
2022-09-28T13:32:55.530Z,6.60
2022-09-28T13:34:05.176Z,6.60
2022-09-28T13:35:18.045Z,6.60
2022-09-28T13:36:34.989Z,6.80
2022-09-28T13:37:43.558Z,7.00
2022-09-28T13:38:51.247Z,7.00
2022-09-28T13:40:00.919Z,6.50
2022-09-28T13:41:11.309Z,7.00
2022-09-28T13:42:47.361Z,7.10
2022-09-28T13:44:14.130Z,7.50
2022-09-28T13:45:28.928Z,6.60
2022-09-28T13:47:12.681Z,7.20
2022-09-28T13:48:43.826Z,6.80
2022-09-28T13:50:05.231Z,6.90
2022-09-28T13:51:18.085Z,6.70
2022-09-28T13:52:46.649Z,7.40
2022-09-28T13:54:06.152Z,7.90
2022-09-28T13:55:35.108Z,7.30
2022-09-28T13:57:16.552Z,6.90
2022-09-28T13:58:40.352Z,6.30
2022-09-28T14:00:14.206Z,8.50
2022-09-28T14:01:26.216Z,7.20
2022-09-28T14:02:43.101Z,6.60
2022-09-28T14:04:23.452Z,7.40
2022-09-28T14:05:43.430Z,6.90
2022-09-28T14:06:58.948Z,5.60
2022-09-28T14:08:22.954Z,6.40
2022-09-28T14:09:47.326Z,8.50
2022-09-28T14:10:59.759Z,6.70
2022-09-28T14:12:37.286Z,7.50
2022-09-28T14:13:45.884Z,6.30
2022-09-28T14:14:54.156Z,6.80
2022-09-28T14:16:25.595Z,6.20
2022-09-28T14:18:03.827Z,6.60
2022-09-28T14:19:18.971Z,5.60
2022-09-28T14:20:28.400Z,5.90
2022-09-28T14:21:50.273Z,6.10
2022-09-28T14:23:31.208Z,6.80
2022-09-28T14:24:54.399Z,6.10
2022-09-28T14:26:17.362Z,6.00
2022-09-28T14:28:03.383Z,5.60
2022-09-28T14:29:31.485Z,5.80
2022-09-28T14:30:46.614Z,6.70
2022-09-28T14:31:55.123Z,5.80
2022-09-28T14:33:04.669Z,7.10
2022-09-28T14:34:34.238Z,6.90
2022-09-28T14:35:43.010Z,7.10
2022-09-28T14:37:13.484Z,6.60
2022-09-28T14:39:05.359Z,6.60
2022-09-28T14:40:39.205Z,6.80
2022-09-28T14:41:47.830Z,7.30
2022-09-28T14:43:31.299Z,7.00
2022-09-28T14:45:06.708Z,7.20
2022-09-28T14:46:17.686Z,6.20
2022-09-28T14:47:53.385Z,6.40
2022-09-28T14:49:07.101Z,6.20
2022-09-28T14:50:29.284Z,6.30
2022-09-28T14:51:39.876Z,6.70
2022-09-28T14:52:50.508Z,6.40
2022-09-28T14:54:02.665Z,6.30
2022-09-28T14:55:18.338Z,7.10
2022-09-28T14:56:31.851Z,6.90
2022-09-28T14:57:42.900Z,7.60
2022-09-28T14:58:55.337Z,6.70
2022-09-28T15:00:03.845Z,7.60
2022-09-28T15:01:19.297Z,7.20
2022-09-28T15:02:33.274Z,7.20
2022-09-28T15:03:41.257Z,7.60
2022-09-28T15:04:53.769Z,7.30
2022-09-28T15:06:03.488Z,7.00
2022-09-28T15:07:32.125Z,7.90
2022-09-28T15:08:41.009Z,7.70
2022-09-28T15:09:52.328Z,7.90
2022-09-28T15:11:00.552Z,7.90
2022-09-28T15:12:18.568Z,7.30
2022-09-28T15:13:30.745Z,7.50
2022-09-28T15:15:04.437Z,7.40
2022-09-28T15:16:15.159Z,7.70
2022-09-28T15:17:29.628Z,7.60
2022-09-28T15:18:53.368Z,7.50
2022-09-28T15:20:19.751Z,7.00
2022-09-28T15:21:43.901Z,7.30
2022-09-28T15:22:59.061Z,6.20
2022-09-28T15:24:28.651Z,7.00
2022-09-28T15:25:43.975Z,6.50
2022-09-28T15:26:54.987Z,7.50
2022-09-28T15:28:19.578Z,7.20
2022-09-28T15:29:35.422Z,6.60
2022-09-28T15:30:47.087Z,7.10
2022-09-28T15:31:55.510Z,7.30
2022-09-28T15:33:23.967Z,7.40
2022-09-28T15:34:54.571Z,6.90
2022-09-28T15:36:05.429Z,7.20
2022-09-28T15:37:14.891Z,7.60
2022-09-28T15:38:23.605Z,7.50
2022-09-28T15:39:36.686Z,7.00
2022-09-28T15:40:48.855Z,7.40
2022-09-28T15:41:56.755Z,7.10
2022-09-28T15:43:12.492Z,7.80
2022-09-28T15:44:31.507Z,7.00
2022-09-28T15:45:42.746Z,7.60
2022-09-28T15:46:58.858Z,6.80
2022-09-28T15:48:34.315Z,7.20
2022-09-28T15:49:46.599Z,6.70
2022-09-28T15:51:13.564Z,7.30
2022-09-28T15:52:38.682Z,6.60
2022-09-28T15:54:07.840Z,6.10
2022-09-28T15:55:23.703Z,6.50
2022-09-28T15:56:33.035Z,6.60
2022-09-28T15:57:41.804Z,6.30
2022-09-28T15:59:11.973Z,5.90
2022-09-28T16:00:32.034Z,5.30
2022-09-28T16:01:45.197Z,6.60
2022-09-28T16:03:02.663Z,6.20
2022-09-28T16:04:58.206Z,5.90
2022-09-28T16:06:11.367Z,6.70
2022-09-28T16:07:25.491Z,7.20
2022-09-28T16:08:41.157Z,5.90
2022-09-28T16:10:06.019Z,6.00
2022-09-28T16:11:27.656Z,6.60
2022-09-28T16:12:40.588Z,6.50
2022-09-28T16:13:56.411Z,6.20
2022-09-28T16:15:21.462Z,6.80
2022-09-28T16:16:51.627Z,6.60
2022-09-28T16:18:06.186Z,6.00
2022-09-28T16:19:41.626Z,6.30
2022-09-28T16:21:00.403Z,6.50
2022-09-28T16:22:11.220Z,6.20
2022-09-28T16:23:18.732Z,6.80
2022-09-28T16:24:28.448Z,6.30
2022-09-28T16:25:38.447Z,6.60
2022-09-28T16:26:45.616Z,5.80
2022-09-28T16:27:56.403Z,6.40
2022-09-28T16:29:26.996Z,6.40
2022-09-28T16:30:35.220Z,6.30
2022-09-28T16:31:45.009Z,6.40
2022-09-28T16:32:58.712Z,5.90
2022-09-28T16:34:11.572Z,6.50
2022-09-28T16:35:30.443Z,5.60
2022-09-28T16:36:46.531Z,5.90
2022-09-28T16:38:05.156Z,6.20
2022-09-28T16:39:15.745Z,5.80
2022-09-28T16:40:23.190Z,6.50
2022-09-28T16:41:30.665Z,6.60
2022-09-28T16:42:37.987Z,6.10
2022-09-28T16:43:45.336Z,5.90
2022-09-28T16:44:52.478Z,5.70
2022-09-28T16:46:01.971Z,5.80
2022-09-28T16:47:09.590Z,6.30
2022-09-28T16:48:20.907Z,5.70
2022-09-28T16:49:29.586Z,6.10
2022-09-28T16:50:36.742Z,6.90
2022-09-28T16:51:44.567Z,6.10
2022-09-28T16:53:17.451Z,5.60
2022-09-28T16:54:44.079Z,6.40
2022-09-28T16:55:51.656Z,5.80
2022-09-28T16:56:58.924Z,6.50
2022-09-28T16:58:06.054Z,5.90
2022-09-28T16:59:14.002Z,5.70
2022-09-28T17:00:24.056Z,5.70
2022-09-28T17:01:32.540Z,5.60
2022-09-28T17:02:46.636Z,6.10
2022-09-28T17:03:55.588Z,4.80
2022-09-28T17:05:03.334Z,5.80
2022-09-28T17:06:11.578Z,5.20
2022-09-28T17:07:19.556Z,5.30
2022-09-28T17:08:27.019Z,4.90
2022-09-28T17:09:34.516Z,5.20
2022-09-28T17:11:15.863Z,5.20
2022-09-28T17:12:30.441Z,5.40
2022-09-28T17:13:38.801Z,4.80
2022-09-28T17:14:46.805Z,5.70
2022-09-28T17:15:54.790Z,5.50
2022-09-28T17:17:09.039Z,5.70
2022-09-28T17:18:20.098Z,5.30
2022-09-28T17:19:28.719Z,5.30
2022-09-28T17:20:36.430Z,5.40
2022-09-28T17:21:43.695Z,5.90
2022-09-28T17:22:51.617Z,5.70
2022-09-28T17:23:58.944Z,5.00
2022-09-28T17:25:08.054Z,5.00
2022-09-28T17:26:29.040Z,4.80
2022-09-28T17:27:36.482Z,5.10
2022-09-28T17:28:43.818Z,4.80
2022-09-28T17:29:50.986Z,5.10
2022-09-28T17:30:58.711Z,4.00